Time;durP1;ratioP1;P1;durP2;ratioP2;P2;SDS_P1;SDS_P2;PMS_P1;PMS_P2;Temp;Humidity;BMP_temperature;BMP_pressure;BME280_temperature;BME280_humidity;BME280_pressure;Samples;Min_cycle;Max_cycle;Signal;HPM_P1;HPM_P2
2020/12/31 00:00:10;;;;;;;3.28;2.10;;;5.90;99.90;;;;;;5102093;28;20382;-78
2020/12/31 00:02:35;;;;;;;3.85;2.20;;;5.50;98.20;;;;;;5102111;28;20387;-78
2020/12/31 00:05:01;;;;;;;3.67;2.50;;;4.50;97.20;;;;;;5094789;28;20382;-79
2020/12/31 00:07:27;;;;;;;2.47;2.20;;;5.50;97.40;;;;;;5107134;28;20472;-78
2020/12/31 00:09:52;;;;;;;2.30;1.93;;;4.80;99.90;;;;;;5095758;28;20392;-77
2020/12/31 00:12:18;;;;;;;2.20;1.90;;;4.20;97.20;;;;;;5100648;28;20432;-77
2020/12/31 00:14:44;;;;;;;2.33;2.13;;;4.30;97.50;;;;;;5103242;28;20740;-77
2020/12/31 00:17:10;;;;;;;2.67;2.38;;;4.80;99.90;;;;;;5093575;28;20386;-77
2020/12/31 00:19:35;;;;;;;3.45;2.50;;;5.20;99.90;;;;;;5107127;28;20428;-78
2020/12/31 00:22:01;;;;;;;3.50;2.43;;;4.00;98.50;;;;;;5096948;28;20404;-78
2020/12/31 00:24:27;;;;;;;4.77;2.50;;;4.00;98.90;;;;;;5099672;28;20882;-77
2020/12/31 00:26:52;;;;;;;4.35;3.10;;;5.10;99.90;;;;;;5104563;28;20402;-76
2020/12/31 00:29:18;;;;;;;4.20;2.90;;;3.80;99.90;;;;;;5092032;28;20617;-76
2020/12/31 00:31:44;;;;;;;4.10;3.10;;;3.70;99.90;;;;;;5090155;28;20389;-77
2020/12/31 00:34:09;;;;;;;3.10;2.80;;;3.90;99.90;;;;;;5097548;28;20495;-75
2020/12/31 00:36:35;;;;;;;3.37;2.80;;;5.40;99.90;;;;;;5098986;28;20923;-76
2020/12/31 00:39:02;;;;;;;4.40;2.97;;;4.30;99.90;;;;;;5104842;28;20766;-78
2020/12/31 00:41:28;;;;;;;4.70;2.85;;;3.70;99.90;;;;;;5091239;28;20417;-76
2020/12/31 00:43:54;;;;;;;3.10;2.90;;;3.70;99.90;;;;;;5089061;28;20414;-77
2020/12/31 00:46:19;;;;;;;5.07;3.28;;;4.50;99.90;;;;;;5089233;28;20386;-76
2020/12/31 00:48:45;;;;;;;3.70;3.00;;;3.80;99.90;;;;;;5088913;28;20382;-76
2020/12/31 00:51:11;;;;;;;4.82;2.90;;;3.50;99.90;;;;;;5089313;28;20382;-76
2020/12/31 00:53:37;;;;;;;3.47;2.95;;;3.80;99.90;;;;;;5090285;28;20385;-77
2020/12/31 00:56:03;;;;;;;4.90;3.35;;;4.90;99.90;;;;;;5089522;28;20410;-79
2020/12/31 00:58:28;;;;;;;3.08;2.50;;;4.70;99.90;;;;;;5089861;28;20385;-77
2020/12/31 01:00:54;;;;;;;5.07;3.03;;;3.40;99.90;;;;;;5089938;28;20884;-77
2020/12/31 01:03:20;;;;;;;3.33;3.03;;;3.50;99.90;;;;;;5088028;28;20405;-77
2020/12/31 01:05:45;;;;;;;4.30;3.80;;;5.80;99.90;;;;;;5090278;28;20885;-77
2020/12/31 01:08:11;;;;;;;3.35;2.90;;;3.60;99.90;;;;;;5087782;28;20387;-77
2020/12/31 01:10:37;;;;;;;4.10;3.55;;;3.10;99.90;;;;;;5091997;28;20408;-77
2020/12/31 01:13:03;;;;;;;3.80;3.20;;;3.50;99.90;;;;;;5093447;28;20380;-79
2020/12/31 01:15:28;;;;;;;5.97;3.25;;;3.30;99.90;;;;;;5093332;28;20456;-77
2020/12/31 01:17:54;;;;;;;3.40;2.75;;;5.90;99.90;;;;;;5093751;28;20378;-76
2020/12/31 01:20:20;;;;;;;3.30;2.80;;;5.00;99.90;;;;;;5092737;28;20413;-75
2020/12/31 01:22:46;;;;;;;3.85;2.70;;;3.70;99.90;;;;;;5094048;28;20746;-76
2020/12/31 01:25:12;;;;;;;3.65;2.78;;;4.70;99.90;;;;;;5092855;28;20887;-78
2020/12/31 01:27:38;;;;;;;3.65;2.63;;;3.30;99.90;;;;;;5093630;28;20382;-77
2020/12/31 01:30:05;;;;;;;4.25;2.60;;;4.50;99.90;;;;;;5093005;28;20423;-78
2020/12/31 01:32:31;;;;;;;3.53;2.42;;;4.90;99.90;;;;;;5093026;28;20389;-76
2020/12/31 01:34:56;;;;;;;2.30;2.10;;;5.40;99.90;;;;;;5091636;28;20910;-76
2020/12/31 01:37:22;;;;;;;2.93;2.17;;;5.30;99.90;;;;;;5092618;28;20378;-77
2020/12/31 01:39:48;;;;;;;2.25;1.95;;;4.70;99.90;;;;;;5093239;28;20370;-77
2020/12/31 01:42:14;;;;;;;3.60;2.40;;;3.10;99.90;;;;;;5092177;28;20386;-77
2020/12/31 01:44:40;;;;;;;3.08;2.50;;;4.50;99.90;;;;;;5093107;28;20423;-77
2020/12/31 01:47:08;;;;;;;2.50;2.30;;;2.80;99.90;;;;;;5092759;28;20370;-79
2020/12/31 01:49:35;;;;;;;3.70;2.20;;;3.10;99.90;;;;;;5093053;28;20382;-78
2020/12/31 01:52:01;;;;;;;2.30;2.00;;;4.90;99.90;;;;;;5093137;28;20377;-78
2020/12/31 01:54:28;;;;;;;2.20;2.00;;;3.30;99.90;;;;;;5092071;28;20561;-78
2020/12/31 01:56:56;;;;;;;2.20;1.77;;;3.00;99.90;;;;;;5093122;28;20455;-78
2020/12/31 01:59:22;;;;;;;2.50;2.05;;;2.50;99.90;;;;;;5092440;28;20393;-79
2020/12/31 02:01:48;;;;;;;2.65;2.05;;;2.40;99.90;;;;;;5092814;28;20382;-79
2020/12/31 02:04:14;;;;;;;2.00;1.60;;;4.60;99.90;;;;;;5090719;28;20734;-79
2020/12/31 02:06:41;;;;;;;2.60;2.00;;;4.00;99.90;;;;;;5092933;28;20457;-79
2020/12/31 02:09:07;;;;;;;2.22;1.90;;;2.30;99.90;;;;;;5092091;28;20374;-80
2020/12/31 02:11:33;;;;;;;2.33;2.05;;;2.50;99.90;;;;;;5091269;28;20397;-79
2020/12/31 02:13:58;;;;;;;2.88;2.10;;;2.40;99.90;;;;;;5092561;28;20405;-80
2020/12/31 02:16:27;;;;;;;2.60;2.10;;;3.80;99.90;;;;;;5090708;28;20386;-79
2020/12/31 02:19:07;;;;;;;1.98;1.75;;;2.30;99.90;;;;;;5092610;28;20473;-78
2020/12/31 02:21:35;;;;;;;3.00;1.70;;;3.20;99.90;;;;;;5091939;28;20374;-79
2020/12/31 02:24:04;;;;;;;2.42;2.05;;;3.70;99.90;;;;;;5092570;28;20367;-79
2020/12/31 02:26:32;;;;;;;2.08;1.70;;;2.90;99.90;;;;;;5091716;28;20381;-76
2020/12/31 02:28:59;;;;;;;1.90;1.63;;;1.80;99.90;;;;;;5092384;28;20382;-76
2020/12/31 02:31:26;;;;;;;2.40;1.60;;;4.60;99.90;;;;;;5090117;28;20394;-77
2020/12/31 02:33:52;;;;;;;2.40;1.50;;;2.10;99.90;;;;;;5090975;28;20393;-78
2020/12/31 02:36:20;;;;;;;2.22;1.63;;;2.90;99.90;;;;;;5091514;28;20402;-78
2020/12/31 02:38:47;;;;;;;1.77;1.50;;;4.00;99.90;;;;;;5092381;28;20414;-78
2020/12/31 02:41:13;;;;;;;2.10;1.42;;;3.30;99.90;;;;;;5089994;28;20724;-78
2020/12/31 02:43:39;;;;;;;2.05;1.58;;;1.80;99.90;;;;;;5092201;28;20704;-76
2020/12/31 02:46:07;;;;;;;1.80;1.48;;;1.80;99.90;;;;;;5092278;28;20401;-76
2020/12/31 02:48:33;;;;;;;1.83;1.52;;;1.90;99.90;;;;;;5091397;28;20432;-76
2020/12/31 02:50:59;;;;;;;2.50;1.40;;;3.30;99.90;;;;;;5091998;28;20406;-76
2020/12/31 02:53:24;;;;;;;2.20;1.90;;;4.10;99.90;;;;;;5090893;28;20374;-76
2020/12/31 02:55:50;;;;;;;2.60;1.30;;;1.90;99.90;;;;;;5091669;28;20410;-76
2020/12/31 02:58:16;;;;;;;1.75;1.50;;;2.30;99.90;;;;;;5090758;28;20464;-76
2020/12/31 03:00:42;;;;;;;1.80;1.30;;;1.90;99.90;;;;;;5091881;28;20374;-75
2020/12/31 03:03:08;;;;;;;2.10;1.70;;;2.00;99.90;;;;;;5091679;28;20401;-76
2020/12/31 03:05:34;;;;;;;2.50;1.60;;;3.30;99.90;;;;;;5090660;28;20390;-75
2020/12/31 03:08:00;;;;;;;1.70;1.60;;;1.90;99.90;;;;;;5091627;28;20417;-74
2020/12/31 03:10:25;;;;;;;2.40;1.98;;;2.40;99.90;;;;;;5091010;28;20863;-75
2020/12/31 03:12:51;;;;;;;2.58;1.80;;;2.00;99.90;;;;;;5091641;28;20416;-74
2020/12/31 03:15:19;;;;;;;2.43;1.80;;;1.50;99.90;;;;;;5090351;28;20401;-75
2020/12/31 03:17:45;;;;;;;2.00;1.80;;;2.50;99.90;;;;;;5091245;28;20386;-76
2020/12/31 03:20:11;;;;;;;2.00;1.90;;;4.20;99.90;;;;;;5087531;28;20382;-77
2020/12/31 03:22:36;;;;;;;2.30;1.90;;;2.10;99.90;;;;;;5084794;28;20408;-75
2020/12/31 03:25:03;;;;;;;1.83;1.40;;;2.90;99.90;;;;;;5088157;28;20390;-75
2020/12/31 03:27:29;;;;;;;1.70;1.60;;;3.70;99.90;;;;;;5087152;28;20382;-76
2020/12/31 03:29:54;;;;;;;2.00;1.70;;;1.80;99.90;;;;;;5089321;28;20385;-76
2020/12/31 03:32:20;;;;;;;1.87;1.60;;;2.50;99.90;;;;;;5087163;28;20467;-76
2020/12/31 03:34:46;;;;;;;3.07;1.90;;;3.40;99.90;;;;;;5088767;28;20421;-77
2020/12/31 03:37:12;;;;;;;2.50;1.70;;;4.00;99.90;;;;;;5089055;28;20370;-77
2020/12/31 03:39:38;;;;;;;2.37;1.73;;;3.60;99.90;;;;;;5088600;28;20374;-76
2020/12/31 03:42:04;;;;;;;1.88;1.60;;;4.40;99.90;;;;;;5089328;28;20386;-76
2020/12/31 03:44:30;;;;;;;1.70;1.50;;;3.50;99.90;;;;;;5086466;28;21214;-77
2020/12/31 03:46:56;;;;;;;2.83;2.00;;;3.50;99.90;;;;;;5088719;28;20407;-76
2020/12/31 03:49:22;;;;;;;1.90;1.47;;;1.80;99.90;;;;;;5088292;28;20409;-78
2020/12/31 03:51:47;;;;;;;2.30;1.70;;;1.70;99.90;;;;;;5087287;28;20440;-77
2020/12/31 03:54:13;;;;;;;2.30;1.50;;;2.60;99.90;;;;;;5088590;28;20957;-79
2020/12/31 03:56:42;;;;;;;1.93;1.60;;;1.70;99.90;;;;;;5088619;28;21320;-76
2020/12/31 03:59:08;;;;;;;1.90;1.60;;;1.10;99.90;;;;;;5089134;28;20425;-76
2020/12/31 04:01:34;;;;;;;1.90;1.38;;;1.80;99.90;;;;;;5087746;28;20389;-76
2020/12/31 04:04:01;;;;;;;1.30;1.20;;;2.30;99.90;;;;;;5087063;28;20393;-76
2020/12/31 04:06:29;;;;;;;2.10;1.40;;;2.10;99.90;;;;;;5087802;28;20410;-76
2020/12/31 04:08:55;;;;;;;2.38;1.58;;;1.90;99.90;;;;;;5088509;28;20766;-76
2020/12/31 04:11:21;;;;;;;1.88;1.40;;;1.70;99.90;;;;;;5086473;28;20386;-75
2020/12/31 04:13:47;;;;;;;2.20;1.90;;;2.20;99.90;;;;;;5086559;28;20734;-77
2020/12/31 04:16:13;;;;;;;2.38;1.55;;;3.50;99.90;;;;;;5088357;28;20451;-77
2020/12/31 04:18:39;;;;;;;1.48;1.30;;;2.20;99.90;;;;;;5088424;28;20389;-76
2020/12/31 04:21:07;;;;;;;3.27;1.70;;;2.40;99.90;;;;;;5087583;28;20381;-76
2020/12/31 04:23:32;;;;;;;1.80;1.48;;;1.70;99.90;;;;;;5087174;28;21029;-76
2020/12/31 04:25:58;;;;;;;2.03;1.50;;;1.30;99.90;;;;;;5088545;28;20461;-76
2020/12/31 04:28:24;;;;;;;2.30;1.80;;;1.40;99.90;;;;;;5087902;28;20423;-76
2020/12/31 04:30:50;;;;;;;2.73;1.40;;;1.50;99.90;;;;;;5088766;28;20429;-76
2020/12/31 04:33:17;;;;;;;2.30;1.70;;;1.00;99.90;;;;;;5088048;28;20416;-77
2020/12/31 04:35:43;;;;;;;1.85;1.40;;;3.20;99.90;;;;;;5087188;28;20436;-75
2020/12/31 04:38:09;;;;;;;2.55;1.67;;;3.50;99.90;;;;;;5088327;28;20378;-77
2020/12/31 04:40:35;;;;;;;2.10;1.65;;;3.20;99.90;;;;;;5086629;28;20889;-78
2020/12/31 04:43:01;;;;;;;2.10;1.67;;;2.80;99.90;;;;;;5087845;28;20374;-78
2020/12/31 04:45:29;;;;;;;1.90;1.60;;;2.30;99.90;;;;;;5091878;28;20389;-78
2020/12/31 04:47:57;;;;;;;2.40;2.20;;;1.70;99.90;;;;;;5092295;28;20391;-78
2020/12/31 04:50:31;;;;;;;2.60;1.60;;;1.30;99.90;;;;;;5089348;28;20396;-79
2020/12/31 04:53:04;;;;;;;2.30;2.00;;;3.30;99.90;;;;;;5089319;28;20382;-77
2020/12/31 04:55:52;;;;;;;1.40;1.30;;;0.90;99.90;;;;;;5088108;28;20402;-77
2020/12/31 04:58:19;;;;;;;2.20;1.80;;;3.60;99.90;;;;;;5090686;28;20991;-78
2020/12/31 05:00:45;;;;;;;3.08;1.40;;;1.10;99.90;;;;;;5091956;28;20959;-78
2020/12/31 05:03:11;;;;;;;2.58;1.50;;;1.30;99.90;;;;;;5090921;28;20389;-77
2020/12/31 05:05:38;;;;;;;2.05;1.80;;;2.90;99.90;;;;;;5091368;28;20398;-77
2020/12/31 05:08:05;;;;;;;2.70;1.50;;;2.00;99.90;;;;;;5092083;28;20419;-76
2020/12/31 05:10:32;;;;;;;1.80;1.30;;;3.30;99.90;;;;;;5089984;28;20393;-76
2020/12/31 05:13:01;;;;;;;2.28;1.80;;;2.50;99.90;;;;;;5091253;28;20874;-77
2020/12/31 05:15:42;;;;;;;1.90;1.50;;;1.70;99.90;;;;;;5090673;28;20478;-77
2020/12/31 05:18:25;;;;;;;1.55;1.45;;;1.70;99.90;;;;;;5092095;28;20398;-77
2020/12/31 05:20:53;;;;;;;1.63;1.20;;;2.80;99.90;;;;;;5089678;28;20397;-75
2020/12/31 05:23:23;;;;;;;1.90;1.50;;;1.10;99.90;;;;;;5090994;28;20383;-77
2020/12/31 05:25:49;;;;;;;2.72;1.40;;;1.50;99.90;;;;;;5092605;28;20877;-77
2020/12/31 05:28:29;;;;;;;2.57;1.80;;;1.50;99.90;;;;;;5093367;28;20384;-75
2020/12/31 05:31:11;;;;;;;1.95;1.45;;;1.50;99.90;;;;;;5092774;28;20381;-76
2020/12/31 05:33:40;;;;;;;1.85;1.20;;;1.50;99.90;;;;;;5091575;28;20386;-76
2020/12/31 05:36:18;;;;;;;1.67;1.52;;;1.00;99.90;;;;;;5091919;28;20772;-76
2020/12/31 05:39:00;;;;;;;2.33;1.60;;;1.50;99.90;;;;;;5091962;28;20421;-76
2020/12/31 05:41:44;;;;;;;2.22;1.45;;;2.40;99.90;;;;;;5091701;28;20386;-76
2020/12/31 05:44:10;;;;;;;1.58;1.15;;;2.50;99.90;;;;;;5092672;28;20382;-76
2020/12/31 05:46:37;;;;;;;1.75;1.45;;;1.30;99.90;;;;;;5091416;28;20384;-76
2020/12/31 05:49:10;;;;;;;1.35;1.17;;;2.80;99.90;;;;;;5092376;28;20382;-76
2020/12/31 05:51:37;;;;;;;1.40;1.30;;;3.80;99.90;;;;;;5091590;28;20378;-75
2020/12/31 05:54:11;;;;;;;1.30;1.13;;;1.30;99.90;;;;;;5092178;28;20877;-75
2020/12/31 05:56:38;;;;;;;2.00;1.33;;;1.20;99.90;;;;;;5090503;28;20378;-75
2020/12/31 05:59:07;;;;;;;1.75;1.45;;;1.30;99.90;;;;;;5092444;28;20379;-77
2020/12/31 06:01:37;;;;;;;1.60;1.50;;;1.50;99.90;;;;;;5091529;28;20394;-77
2020/12/31 06:04:19;;;;;;;1.67;1.40;;;3.00;99.90;;;;;;5092259;28;20470;-78
2020/12/31 06:06:57;;;;;;;1.45;1.35;;;1.50;99.90;;;;;;5091778;28;20400;-77
2020/12/31 06:09:28;;;;;;;1.40;1.30;;;1.20;99.90;;;;;;5092165;28;20374;-78
2020/12/31 06:12:02;;;;;;;1.23;1.13;;;2.10;99.90;;;;;;5092359;28;20382;-76
2020/12/31 06:14:32;;;;;;;1.20;1.10;;;1.90;99.90;;;;;;5091673;28;20510;-76
2020/12/31 06:17:00;;;;;;;1.60;1.30;;;1.70;99.90;;;;;;5092140;28;20722;-75
2020/12/31 06:19:31;;;;;;;1.85;1.40;;;1.60;99.90;;;;;;5091534;28;20397;-76
2020/12/31 06:22:04;;;;;;;2.25;1.48;;;3.70;99.90;;;;;;5091928;28;20953;-75
2020/12/31 06:24:40;;;;;;;1.27;1.13;;;3.40;99.90;;;;;;5091560;28;20390;-76
2020/12/31 06:27:17;;;;;;;1.40;1.30;;;1.50;99.90;;;;;;5090859;28;20471;-77
2020/12/31 06:29:45;;;;;;;1.70;1.20;;;1.70;99.90;;;;;;5091288;28;20392;-76
2020/12/31 06:32:16;;;;;;;3.10;1.20;;;3.40;99.90;;;;;;5092245;28;20398;-76
2020/12/31 06:34:42;;;;;;;2.08;1.10;;;3.50;99.90;;;;;;5091311;28;20414;-76
2020/12/31 06:37:12;;;;;;;1.40;1.30;;;1.50;99.90;;;;;;5091576;28;20731;-76
2020/12/31 06:39:40;;;;;;;2.05;1.20;;;1.70;99.90;;;;;;5091110;28;20440;-76
2020/12/31 06:42:07;;;;;;;1.40;1.30;;;3.50;99.90;;;;;;5092011;28;20757;-76
2020/12/31 06:44:33;;;;;;;2.13;1.10;;;1.60;99.90;;;;;;5090904;28;20784;-76
2020/12/31 06:46:59;;;;;;;1.20;1.10;;;3.30;99.90;;;;;;5090652;28;20412;-75
2020/12/31 06:49:49;;;;;;;2.20;1.40;;;2.00;99.90;;;;;;5091392;28;20374;-77
2020/12/31 06:52:24;;;;;;;1.90;1.50;;;2.30;99.90;;;;;;5091841;28;20394;-76
2020/12/31 06:54:50;;;;;;;1.17;1.08;;;1.50;99.90;;;;;;5091351;28;20401;-76
2020/12/31 06:57:38;;;;;;;1.80;1.00;;;3.70;99.90;;;;;;5091765;28;20728;-76
2020/12/31 07:00:05;;;;;;;1.33;1.00;;;2.30;99.90;;;;;;5091805;28;20696;-78
2020/12/31 07:02:44;;;;;;;1.30;1.10;;;2.20;99.90;;;;;;5090617;28;20397;-78
2020/12/31 07:05:22;;;;;;;1.80;1.60;;;2.90;99.90;;;;;;5092149;28;20524;-77
2020/12/31 07:07:48;;;;;;;1.45;1.15;;;3.10;99.90;;;;;;5090899;28;20472;-76
2020/12/31 07:10:14;;;;;;;1.17;1.08;;;2.80;99.90;;;;;;5091610;28;20384;-77
2020/12/31 07:12:49;;;;;;;1.60;0.90;;;2.80;99.90;;;;;;5090512;28;20457;-77
2020/12/31 07:15:17;;;;;;;1.77;1.10;;;4.80;99.90;;;;;;5091570;28;20397;-77
2020/12/31 07:17:46;;;;;;;1.70;1.15;;;4.60;99.90;;;;;;5090705;28;20382;-77
2020/12/31 07:20:17;;;;;;;0.80;0.80;;;2.80;98.80;;;;;;5091563;28;20382;-77
2020/12/31 07:22:44;;;;;;;1.10;1.00;;;3.40;96.00;;;;;;5089228;28;20966;-78
2020/12/31 07:25:17;;;;;;;1.10;0.80;;;4.20;95.50;;;;;;5091311;28;20432;-76
2020/12/31 07:27:48;;;;;;;1.60;1.00;;;3.10;94.20;;;;;;5090869;28;20484;-79
2020/12/31 07:30:18;;;;;;;1.30;1.20;;;4.90;99.70;;;;;;5090933;28;20925;-76
2020/12/31 07:32:56;;;;;;;1.67;1.00;;;3.00;94.60;;;;;;5090675;28;20394;-77
2020/12/31 07:35:26;;;;;;;1.50;1.13;;;4.90;96.90;;;;;;5090937;28;20443;-77
2020/12/31 07:37:58;;;;;;;1.48;1.15;;;3.00;97.40;;;;;;5090090;28;20444;-76
2020/12/31 07:40:32;;;;;;;1.10;0.90;;;3.10;96.80;;;;;;5090916;28;20784;-77
2020/12/31 07:42:58;;;;;;;1.40;1.30;;;4.80;95.80;;;;;;5091287;28;20382;-77
2020/12/31 07:45:25;;;;;;;1.83;1.30;;;4.90;94.80;;;;;;5089702;28;20422;-76
2020/12/31 07:47:52;;;;;;;1.05;0.90;;;4.80;94.80;;;;;;5089330;28;20912;-76
2020/12/31 07:50:19;;;;;;;1.15;1.05;;;3.50;96.30;;;;;;5090725;28;20431;-77
2020/12/31 07:52:44;;;;;;;1.00;1.00;;;3.90;99.40;;;;;;5090233;28;20731;-77
2020/12/31 07:55:10;;;;;;;1.73;1.23;;;4.20;97.60;;;;;;5090919;28;20398;-77
2020/12/31 07:57:39;;;;;;;2.20;1.10;;;3.60;95.30;;;;;;5090156;28;20809;-78
2020/12/31 08:00:19;;;;;;;1.30;1.10;;;3.20;94.10;;;;;;5090856;28;20469;-77
2020/12/31 08:02:51;;;;;;;1.20;1.00;;;3.40;93.70;;;;;;5090299;28;20393;-79
2020/12/31 08:05:18;;;;;;;1.30;1.08;;;4.90;99.60;;;;;;5089552;28;20431;-79
2020/12/31 08:07:44;;;;;;;1.30;1.10;;;3.10;94.20;;;;;;5090068;28;20393;-77
2020/12/31 08:10:10;;;;;;;1.35;1.15;;;4.90;95.10;;;;;;5090842;28;20370;-78
2020/12/31 08:12:38;;;;;;;1.00;0.90;;;3.50;94.40;;;;;;5090021;28;20401;-78
2020/12/31 08:15:05;;;;;;;1.42;1.15;;;5.20;95.20;;;;;;5090396;28;20874;-77
2020/12/31 08:17:31;;;;;;;1.27;0.90;;;4.70;99.00;;;;;;5089977;28;20446;-78
2020/12/31 08:19:57;;;;;;;1.30;1.20;;;3.80;98.80;;;;;;5093864;28;20471;-77
2020/12/31 08:22:31;;;;;;;1.40;0.93;;;3.70;98.30;;;;;;5094846;28;20461;-77
2020/12/31 08:25:05;;;;;;;2.00;1.10;;;3.90;93.50;;;;;;5095039;28;20402;-77
2020/12/31 08:27:36;;;;;;;1.75;1.20;;;4.90;93.80;;;;;;5095139;28;20511;-77
2020/12/31 08:30:03;;;;;;;2.20;1.17;;;3.70;93.40;;;;;;5094705;28;20417;-77
2020/12/31 08:32:41;;;;;;;1.30;1.10;;;4.20;95.40;;;;;;5094031;28;20378;-78
2020/12/31 08:35:11;;;;;;;1.20;1.08;;;3.90;93.80;;;;;;5094245;28;20539;-77
2020/12/31 08:37:38;;;;;;;1.25;1.15;;;5.00;94.70;;;;;;5093611;28;20381;-78
2020/12/31 08:40:04;;;;;;;1.30;1.07;;;3.90;93.50;;;;;;5094260;28;20377;-77
2020/12/31 08:42:34;;;;;;;1.20;1.10;;;6.00;95.40;;;;;;5094016;28;20382;-78
2020/12/31 08:45:00;;;;;;;1.20;1.10;;;4.00;94.40;;;;;;5094357;28;20776;-76
2020/12/31 08:47:28;;;;;;;1.40;1.17;;;4.40;94.20;;;;;;5094137;28;20404;-76
2020/12/31 08:49:57;;;;;;;1.40;1.30;;;5.30;98.60;;;;;;5093702;28;20385;-77
2020/12/31 08:52:27;;;;;;;2.30;1.58;;;5.00;94.90;;;;;;5094231;28;20735;-77
2020/12/31 08:55:07;;;;;;;1.45;1.30;;;3.90;93.30;;;;;;5092267;28;20414;-76
2020/12/31 08:57:32;;;;;;;1.60;1.50;;;4.10;97.60;;;;;;5086570;28;20382;-77
2020/12/31 08:59:58;;;;;;;1.90;1.30;;;4.50;96.90;;;;;;5093852;28;20423;-76
2020/12/31 09:02:24;;;;;;;2.17;1.63;;;4.30;93.80;;;;;;5092705;28;20485;-76
2020/12/31 09:05:10;;;;;;;2.33;1.50;;;4.30;93.30;;;;;;5093478;28;20382;-77
2020/12/31 09:07:35;;;;;;;1.58;1.40;;;5.00;92.80;;;;;;5091972;28;20443;-77
2020/12/31 09:10:12;;;;;;;2.20;1.50;;;4.40;92.80;;;;;;5094030;28;20378;-76
2020/12/31 09:12:38;;;;;;;1.65;1.45;;;6.10;93.80;;;;;;5093202;28;20738;-76
2020/12/31 09:15:05;;;;;;;1.77;1.43;;;5.30;93.50;;;;;;5092513;28;20402;-77
2020/12/31 09:17:34;;;;;;;2.50;1.30;;;5.30;93.50;;;;;;5092503;28;20398;-79
2020/12/31 09:20:00;;;;;;;1.83;1.37;;;4.90;92.80;;;;;;5093930;28;20765;-79
2020/12/31 09:22:26;;;;;;;1.20;1.10;;;5.90;93.30;;;;;;5093845;28;20385;-79
2020/12/31 09:24:52;;;;;;;2.25;1.60;;;5.10;94.60;;;;;;5091706;28;20864;-77
2020/12/31 09:27:25;;;;;;;1.30;1.10;;;6.00;97.30;;;;;;5093710;28;20374;-77
2020/12/31 09:29:57;;;;;;;2.53;1.30;;;5.90;96.70;;;;;;5093883;28;20639;-78
2020/12/31 09:32:23;;;;;;;2.10;1.00;;;5.00;96.00;;;;;;5095106;28;20734;-79
2020/12/31 09:34:48;;;;;;;1.40;1.30;;;5.60;92.10;;;;;;5092021;28;20421;-77
2020/12/31 09:37:16;;;;;;;1.20;1.10;;;6.10;92.80;;;;;;5092376;28;20378;-78
2020/12/31 09:39:42;;;;;;;1.90;1.10;;;5.50;95.60;;;;;;5093166;28;20374;-79
2020/12/31 09:42:08;;;;;;;1.38;1.00;;;5.10;92.10;;;;;;5093375;28;20397;-78
2020/12/31 09:44:35;;;;;;;0.97;0.87;;;5.70;92.70;;;;;;5093367;28;20841;-79
2020/12/31 09:47:00;;;;;;;1.00;0.75;;;6.40;97.60;;;;;;5093405;28;20406;-79
2020/12/31 09:49:26;;;;;;;0.85;0.77;;;6.00;97.40;;;;;;5093008;28;20410;-79
2020/12/31 09:51:51;;;;;;;1.20;0.70;;;5.30;92.80;;;;;;5092206;28;20454;-79
2020/12/31 09:54:17;;;;;;;0.90;0.60;;;6.40;93.60;;;;;;5091603;28;20409;-79
2020/12/31 09:56:43;;;;;;;0.90;0.60;;;7.50;98.10;;;;;;5092737;28;20410;-79
2020/12/31 09:59:08;;;;;;;1.15;0.60;;;5.90;93.60;;;;;;5092151;28;20390;-77
2020/12/31 10:01:35;;;;;;;0.70;0.50;;;6.70;94.00;;;;;;5092662;28;20429;-78
2020/12/31 10:04:00;;;;;;;0.90;0.80;;;5.60;93.50;;;;;;5091947;28;20427;-75
2020/12/31 10:06:26;;;;;;;0.80;0.60;;;5.50;97.90;;;;;;5092903;28;20375;-77
2020/12/31 10:08:52;;;;;;;0.80;0.50;;;5.70;92.90;;;;;;5091909;28;20735;-75
2020/12/31 10:11:18;;;;;;;0.80;0.50;;;5.70;93.30;;;;;;5092489;28;20904;-76
2020/12/31 10:13:45;;;;;;;0.80;0.60;;;5.80;94.10;;;;;;5092127;28;20419;-77
2020/12/31 10:16:10;;;;;;;1.40;0.68;;;6.40;96.60;;;;;;5092396;28;20897;-75
2020/12/31 10:18:36;;;;;;;0.97;0.60;;;6.60;98.20;;;;;;5091996;28;20383;-77
2020/12/31 10:21:02;;;;;;;0.90;0.50;;;6.50;94.10;;;;;;5092252;28;20420;-76
2020/12/31 10:23:27;;;;;;;0.50;0.40;;;6.20;94.10;;;;;;5091335;28;20402;-77
2020/12/31 10:25:53;;;;;;;0.60;0.40;;;7.80;98.30;;;;;;5092625;28;20448;-77
2020/12/31 10:28:20;;;;;;;0.57;0.40;;;6.20;93.40;;;;;;5093173;28;20382;-78
2020/12/31 10:30:46;;;;;;;0.80;0.30;;;6.40;92.20;;;;;;5092782;28;20381;-78
2020/12/31 10:33:11;;;;;;;0.60;0.60;;;6.50;91.30;;;;;;5093918;28;20386;-79
2020/12/31 10:35:38;;;;;;;0.60;0.30;;;6.50;90.70;;;;;;5091811;28;20422;-79
2020/12/31 10:38:03;;;;;;;0.60;0.40;;;7.20;92.40;;;;;;5093105;28;20929;-79
2020/12/31 10:40:29;;;;;;;0.90;0.50;;;7.70;93.30;;;;;;5075536;28;20390;-77
2020/12/31 10:42:55;;;;;;;1.10;0.55;;;6.70;92.00;;;;;;5091473;28;20378;-77
2020/12/31 10:45:20;;;;;;;0.80;0.50;;;8.70;94.00;;;;;;5092284;28;20417;-79
2020/12/31 10:47:46;;;;;;;0.70;0.50;;;6.70;94.10;;;;;;5091864;28;20777;-78
2020/12/31 10:50:11;;;;;;;0.70;0.60;;;7.40;92.40;;;;;;5091765;28;20743;-76
2020/12/31 10:52:37;;;;;;;0.60;0.40;;;7.40;93.60;;;;;;5094742;28;20381;-78
2020/12/31 10:55:03;;;;;;;0.80;0.50;;;6.60;91.30;;;;;;5098310;28;20402;-76
2020/12/31 10:57:29;;;;;;;0.50;0.43;;;6.60;91.90;;;;;;5093349;28;20785;-77
2020/12/31 10:59:55;;;;;;;0.60;0.50;;;6.70;91.70;;;;;;5098466;28;20394;-75
2020/12/31 11:02:21;;;;;;;0.70;0.40;;;7.00;94.80;;;;;;5092892;28;20386;-77
2020/12/31 11:04:46;;;;;;;0.50;0.30;;;8.00;92.20;;;;;;5089021;28;20422;-76
2020/12/31 11:07:12;;;;;;;0.70;0.60;;;7.00;88.20;;;;;;5091269;28;20382;-77
2020/12/31 11:09:37;;;;;;;0.40;0.30;;;7.20;91.80;;;;;;5091064;28;20903;-78
2020/12/31 11:12:03;;;;;;;0.40;0.30;;;6.90;88.70;;;;;;5098552;28;20378;-78
2020/12/31 11:14:29;;;;;;;1.02;0.50;;;7.40;84.30;;;;;;5095782;28;20416;-77
2020/12/31 11:16:54;;;;;;;0.60;0.40;;;8.10;87.80;;;;;;5094711;28;20427;-76
2020/12/31 11:19:20;;;;;;;0.60;0.40;;;7.40;86.80;;;;;;5090302;28;21024;-80
2020/12/31 11:21:49;;;;;;;0.40;0.30;;;7.60;83.10;;;;;;5090542;28;20381;-78
2020/12/31 11:24:15;;;;;;;0.60;0.40;;;8.60;90.00;;;;;;5091351;28;20374;-77
2020/12/31 11:26:41;;;;;;;1.40;0.50;;;9.40;91.00;;;;;;5090502;28;20469;-79
2020/12/31 11:29:06;;;;;;;0.55;0.50;;;6.00;81.00;;;;;;5091899;28;20378;-76
2020/12/31 11:31:32;;;;;;;0.70;0.50;;;8.80;82.80;;;;;;5091003;28;20382;-77
2020/12/31 11:34:00;;;;;;;0.73;0.40;;;7.70;86.60;;;;;;5090083;28;20979;-77
2020/12/31 11:36:27;;;;;;;0.73;0.50;;;9.30;91.00;;;;;;5090687;28;20422;-76
2020/12/31 11:38:53;;;;;;;0.60;0.35;;;8.40;81.50;;;;;;5092528;28;20386;-78
2020/12/31 11:41:19;;;;;;;0.60;0.40;;;7.60;81.20;;;;;;5103169;28;20374;-83
2020/12/31 11:43:45;;;;;;;2.20;0.50;;;7.90;81.70;;;;;;5098254;28;20465;-83
2020/12/31 11:46:11;;;;;;;0.60;0.40;;;9.30;90.70;;;;;;5093802;28;20385;-85
2020/12/31 11:48:38;;;;;;;0.88;0.60;;;7.40;88.00;;;;;;5091842;28;20953;-84
2020/12/31 11:51:07;;;;;;;0.63;0.43;;;7.50;81.70;;;;;;5090346;28;20447;-84
2020/12/31 11:53:33;;;;;;;0.50;0.40;;;7.70;90.90;;;;;;5090800;28;20411;-82
2020/12/31 11:56:03;;;;;;;1.02;0.55;;;7.70;83.20;;;;;;5090289;28;21195;-83
2020/12/31 11:58:29;;;;;;;1.30;0.50;;;7.70;82.40;;;;;;5095340;28;20393;-82
2020/12/31 12:00:55;;;;;;;1.20;0.55;;;7.80;82.60;;;;;;5092617;28;20374;-83
2020/12/31 12:03:21;;;;;;;0.50;0.40;;;8.10;82.30;;;;;;5092756;28;20753;-82
2020/12/31 12:05:52;;;;;;;1.17;0.50;;;8.90;90.50;;;;;;5091049;28;20469;-81
2020/12/31 12:08:18;;;;;;;1.77;0.90;;;8.00;80.50;;;;;;5094534;28;20377;-82
2020/12/31 12:10:48;;;;;;;1.60;1.00;;;8.30;84.80;;;;;;5092079;28;20374;-83
2020/12/31 12:13:13;;;;;;;1.30;0.90;;;7.70;91.40;;;;;;5092988;28;20377;-83
2020/12/31 12:15:41;;;;;;;0.63;0.60;;;8.60;91.30;;;;;;5093026;28;20432;-82
2020/12/31 12:18:07;;;;;;;1.10;0.98;;;8.00;88.60;;;;;;5093373;28;20389;-73
2020/12/31 12:20:33;;;;;;;1.48;0.98;;;7.60;92.30;;;;;;5090732;28;20722;-82
2020/12/31 12:22:58;;;;;;;1.00;0.77;;;7.40;87.30;;;;;;5090190;28;20386;-74
2020/12/31 12:25:24;;;;;;;1.10;0.70;;;7.40;87.50;;;;;;5092577;28;20389;-77
2020/12/31 12:27:50;;;;;;;0.70;0.70;;;7.40;92.30;;;;;;5088976;28;20392;-76
2020/12/31 12:30:16;;;;;;;0.80;0.63;;;7.40;87.00;;;;;;5085217;28;20753;-76
2020/12/31 12:32:41;;;;;;;0.93;0.70;;;6.30;84.70;;;;;;5079950;28;20386;-77
2020/12/31 12:35:08;;;;;;;0.70;0.70;;;8.70;87.20;;;;;;5079233;28;20487;-77
2020/12/31 12:37:35;;;;;;;1.40;0.90;;;8.00;84.40;;;;;;5080142;28;20382;-77
2020/12/31 12:40:01;;;;;;;1.80;1.20;;;8.30;90.00;;;;;;5079911;28;20422;-76
2020/12/31 12:42:26;;;;;;;1.90;1.38;;;7.70;92.70;;;;;;5079074;28;21195;-76
2020/12/31 12:44:52;;;;;;;1.25;0.63;;;8.30;88.80;;;;;;5080175;28;20413;-77
2020/12/31 12:47:18;;;;;;;2.00;1.17;;;7.40;89.00;;;;;;5081046;28;20382;-78
2020/12/31 12:49:45;;;;;;;1.23;0.70;;;7.80;91.90;;;;;;5076777;28;20484;-78
2020/12/31 12:52:11;;;;;;;0.80;0.47;;;7.20;91.60;;;;;;5080415;28;20547;-78
2020/12/31 12:54:37;;;;;;;0.90;0.52;;;7.40;93.40;;;;;;5082020;28;20996;-77
2020/12/31 12:57:03;;;;;;;1.05;0.80;;;8.20;91.20;;;;;;5079184;28;20473;-76
2020/12/31 12:59:29;;;;;;;0.50;0.40;;;7.40;87.40;;;;;;5081238;28;20388;-76